sensor_id;sensor_type;location;lat;lon;timestamp;pressure;altitude;pressure_sealevel;temperature;humidity
37648;BME280;23490;53.656;10.076;2022-09-09T00:00:46;55898.94;;;-145.95;100.00
37648;BME280;23490;53.656;10.076;2022-09-09T00:03:43;55923.41;;;-145.95;100.00
37648;BME280;23490;53.656;10.076;2022-09-09T00:06:21;55894.84;;;-145.95;100.00
37648;BME280;23490;53.656;10.076;2022-09-09T00:09:06;55858.16;;;-145.95;100.00
37648;BME280;23490;53.656;10.076;2022-09-09T00:11:54;55907.09;;;-145.95;100.00
37648;BME280;23490;53.656;10.076;2022-09-09T00:14:30;55870.38;;;-145.95;100.00
37648;BME280;23490;53.656;10.076;2022-09-09T00:17:04;55919.31;;;-145.95;100.00
37648;BME280;23490;53.656;10.076;2022-09-09T00:19:39;55872.41;;;-145.95;100.00
37648;BME280;23490;53.656;10.076;2022-09-09T00:24:44;55898.94;;;-145.95;100.00
37648;BME280;23490;53.656;10.076;2022-09-09T00:27:16;55933.59;;;-145.95;100.00
37648;BME280;23490;53.656;10.076;2022-09-09T00:32:17;55927.47;;;-145.95;100.00
37648;BME280;23490;53.656;10.076;2022-09-09T00:34:55;55925.44;;;-145.95;100.00
37648;BME280;23490;53.656;10.076;2022-09-09T00:37:22;55927.47;;;-145.95;100.00
37648;BME280;23490;53.656;10.076;2022-09-09T00:39:51;55951.94;;;-145.95;100.00
37648;BME280;23490;53.656;10.076;2022-09-09T00:42:33;55947.88;;;-145.95;100.00
37648;BME280;23490;53.656;10.076;2022-09-09T00:48:06;55931.56;;;-145.95;100.00
37648;BME280;23490;53.656;10.076;2022-09-09T00:50:57;55872.41;;;-145.95;100.00
37648;BME280;23490;53.656;10.076;2022-09-09T00:53:31;55947.88;;;-145.95;100.00
37648;BME280;23490;53.656;10.076;2022-09-09T00:56:18;55976.41;;;-145.95;100.00
37648;BME280;23490;53.656;10.076;2022-09-09T01:01:51;55921.34;;;-145.95;100.00
37648;BME280;23490;53.656;10.076;2022-09-09T01:04:26;55872.41;;;-145.95;100.00
37648;BME280;23490;53.656;10.076;2022-09-09T01:06:59;55905.03;;;-145.95;100.00
37648;BME280;23490;53.656;10.076;2022-09-09T01:14:43;55951.94;;;-145.95;100.00
37648;BME280;23490;53.656;10.076;2022-09-09T01:17:17;55939.72;;;-145.95;100.00
37648;BME280;23490;53.656;10.076;2022-09-09T01:25:17;55921.34;;;-145.95;100.00
37648;BME280;23490;53.656;10.076;2022-09-09T01:27:44;55976.41;;;-145.95;100.00
37648;BME280;23490;53.656;10.076;2022-09-09T01:30:13;55962.16;;;-145.95;100.00
37648;BME280;23490;53.656;10.076;2022-09-09T01:32:43;55923.41;;;-145.95;100.00
37648;BME280;23490;53.656;10.076;2022-09-09T01:37:48;55907.09;;;-145.95;100.00
37648;BME280;23490;53.656;10.076;2022-09-09T01:40:13;55903.00;;;-145.95;100.00
37648;BME280;23490;53.656;10.076;2022-09-09T01:42:38;55929.50;;;-145.95;100.00
37648;BME280;23490;53.656;10.076;2022-09-09T01:45:04;55939.72;;;-145.95;100.00
37648;BME280;23490;53.656;10.076;2022-09-09T01:47:30;55890.78;;;-145.95;100.00
37648;BME280;23490;53.656;10.076;2022-09-09T01:49:55;55927.47;;;-145.95;100.00
37648;BME280;23490;53.656;10.076;2022-09-09T01:52:21;55919.31;;;-145.95;100.00
37648;BME280;23490;53.656;10.076;2022-09-09T01:54:46;55907.09;;;-145.95;100.00
37648;BME280;23490;53.656;10.076;2022-09-09T01:57:23;55915.25;;;-145.95;100.00
37648;BME280;23490;53.656;10.076;2022-09-09T02:02:34;55911.16;;;-145.95;100.00
37648;BME280;23490;53.656;10.076;2022-09-09T02:05:05;55911.16;;;-145.95;100.00
37648;BME280;23490;53.656;10.076;2022-09-09T02:07:47;55919.31;;;-145.95;100.00
37648;BME280;23490;53.656;10.076;2022-09-09T02:10:28;55988.66;;;-145.95;100.00
37648;BME280;23490;53.656;10.076;2022-09-09T02:13:13;55935.63;;;-145.95;100.00
37648;BME280;23490;53.656;10.076;2022-09-09T02:17:00;55898.94;;;-145.95;100.00
37648;BME280;23490;53.656;10.076;2022-09-09T02:19:28;55903.00;;;-145.95;100.00
37648;BME280;23490;53.656;10.076;2022-09-09T02:21:57;55917.28;;;-145.95;100.00
37648;BME280;23490;53.656;10.076;2022-09-09T02:24:25;55935.63;;;-145.95;100.00
37648;BME280;23490;53.656;10.076;2022-09-09T02:26:53;55931.56;;;-145.95;100.00
37648;BME280;23490;53.656;10.076;2022-09-09T02:29:31;55870.38;;;-145.95;100.00
37648;BME280;23490;53.656;10.076;2022-09-09T02:32:01;55931.56;;;-145.95;100.00
37648;BME280;23490;53.656;10.076;2022-09-09T02:34:31;55894.84;;;-145.95;100.00
37648;BME280;23490;53.656;10.076;2022-09-09T02:36:59;55960.09;;;-145.95;100.00
37648;BME280;23490;53.656;10.076;2022-09-09T02:39:26;55929.50;;;-145.95;100.00
37648;BME280;23490;53.656;10.076;2022-09-09T02:41:51;55929.50;;;-145.95;100.00
37648;BME280;23490;53.656;10.076;2022-09-09T02:44:18;55927.47;;;-145.95;100.00
37648;BME280;23490;53.656;10.076;2022-09-09T02:49:11;55927.47;;;-145.95;100.00
37648;BME280;23490;53.656;10.076;2022-09-09T02:51:57;55931.56;;;-145.95;100.00
37648;BME280;23490;53.656;10.076;2022-09-09T02:54:32;55960.09;;;-145.95;100.00
37648;BME280;23490;53.656;10.076;2022-09-09T02:57:08;55921.34;;;-145.95;100.00
37648;BME280;23490;53.656;10.076;2022-09-09T02:59:35;55951.94;;;-145.95;100.00
37648;BME280;23490;53.656;10.076;2022-09-09T03:02:01;55937.66;;;-145.95;100.00
37648;BME280;23490;53.656;10.076;2022-09-09T03:04:26;55927.47;;;-145.95;100.00
37648;BME280;23490;53.656;10.076;2022-09-09T03:06:52;55911.16;;;-145.95;100.00
37648;BME280;23490;53.656;10.076;2022-09-09T03:09:17;55947.88;;;-145.95;100.00
37648;BME280;23490;53.656;10.076;2022-09-09T03:11:43;55939.72;;;-145.95;100.00
37648;BME280;23490;53.656;10.076;2022-09-09T03:14:08;55931.56;;;-145.95;100.00
37648;BME280;23490;53.656;10.076;2022-09-09T03:16:33;55939.72;;;-145.95;100.00
37648;BME280;23490;53.656;10.076;2022-09-09T03:19:00;55907.09;;;-145.95;100.00
37648;BME280;23490;53.656;10.076;2022-09-09T03:21:26;55927.47;;;-145.95;100.00
37648;BME280;23490;53.656;10.076;2022-09-09T03:23:51;55927.47;;;-145.95;100.00
37648;BME280;23490;53.656;10.076;2022-09-09T03:26:17;55980.50;;;-145.95;100.00
37648;BME280;23490;53.656;10.076;2022-09-09T03:28:42;55919.31;;;-145.95;100.00
37648;BME280;23490;53.656;10.076;2022-09-09T03:31:10;55927.47;;;-145.95;100.00
37648;BME280;23490;53.656;10.076;2022-09-09T03:33:37;55947.88;;;-145.95;100.00
37648;BME280;23490;53.656;10.076;2022-09-09T03:36:03;55964.19;;;-145.95;100.00
37648;BME280;23490;53.656;10.076;2022-09-09T03:38:28;55947.88;;;-145.95;100.00
37648;BME280;23490;53.656;10.076;2022-09-09T03:40:55;55911.16;;;-145.95;100.00
37648;BME280;23490;53.656;10.076;2022-09-09T03:43:23;55919.31;;;-145.95;100.00
37648;BME280;23490;53.656;10.076;2022-09-09T03:45:48;55900.97;;;-145.95;100.00
37648;BME280;23490;53.656;10.076;2022-09-09T03:48:18;55972.34;;;-145.95;100.00
37648;BME280;23490;53.656;10.076;2022-09-09T03:50:46;55947.88;;;-145.95;100.00
37648;BME280;23490;53.656;10.076;2022-09-09T03:53:13;55943.78;;;-145.95;100.00
37648;BME280;23490;53.656;10.076;2022-09-09T03:55:39;55943.78;;;-145.95;100.00
37648;BME280;23490;53.656;10.076;2022-09-09T03:58:06;55947.88;;;-145.95;100.00
37648;BME280;23490;53.656;10.076;2022-09-09T04:00:32;55943.78;;;-145.95;100.00
37648;BME280;23490;53.656;10.076;2022-09-09T04:02:58;55923.41;;;-145.95;100.00
37648;BME280;23490;53.656;10.076;2022-09-09T04:05:23;55943.78;;;-145.95;100.00
37648;BME280;23490;53.656;10.076;2022-09-09T04:07:49;55935.63;;;-145.95;100.00
37648;BME280;23490;53.656;10.076;2022-09-09T04:10:14;55960.09;;;-145.95;100.00
37648;BME280;23490;53.656;10.076;2022-09-09T04:12:40;55968.25;;;-145.95;100.00
37648;BME280;23490;53.656;10.076;2022-09-09T04:15:06;55947.88;;;-145.95;100.00
37648;BME280;23490;53.656;10.076;2022-09-09T04:17:32;55935.63;;;-145.95;100.00
37648;BME280;23490;53.656;10.076;2022-09-09T04:19:58;55911.16;;;-145.95;100.00
37648;BME280;23490;53.656;10.076;2022-09-09T04:22:23;55919.31;;;-145.95;100.00
37648;BME280;23490;53.656;10.076;2022-09-09T04:24:48;55941.75;;;-145.95;100.00
37648;BME280;23490;53.656;10.076;2022-09-09T04:27:14;55933.59;;;-145.95;100.00
37648;BME280;23490;53.656;10.076;2022-09-09T04:29:39;55927.47;;;-145.95;100.00
37648;BME280;23490;53.656;10.076;2022-09-09T04:32:04;55894.84;;;-145.95;100.00
37648;BME280;23490;53.656;10.076;2022-09-09T04:34:30;55907.09;;;-145.95;100.00
37648;BME280;23490;53.656;10.076;2022-09-09T04:36:56;55935.63;;;-145.95;100.00
37648;BME280;23490;53.656;10.076;2022-09-09T04:39:22;55927.47;;;-145.95;100.00
37648;BME280;23490;53.656;10.076;2022-09-09T04:41:47;55988.66;;;-145.95;100.00
37648;BME280;23490;53.656;10.076;2022-09-09T04:44:12;55943.78;;;-145.95;100.00
37648;BME280;23490;53.656;10.076;2022-09-09T04:46:38;55943.78;;;-145.95;100.00
37648;BME280;23490;53.656;10.076;2022-09-09T04:49:03;55923.41;;;-145.95;100.00
37648;BME280;23490;53.656;10.076;2022-09-09T04:51:29;55915.25;;;-145.95;100.00
37648;BME280;23490;53.656;10.076;2022-09-09T04:53:56;55927.47;;;-145.95;100.00
37648;BME280;23490;53.656;10.076;2022-09-09T04:56:21;55968.25;;;-145.95;100.00
37648;BME280;23490;53.656;10.076;2022-09-09T04:58:46;55923.41;;;-145.95;100.00
37648;BME280;23490;53.656;10.076;2022-09-09T05:01:15;55923.41;;;-145.95;100.00
37648;BME280;23490;53.656;10.076;2022-09-09T05:03:42;55943.78;;;-145.95;100.00
37648;BME280;23490;53.656;10.076;2022-09-09T05:06:09;55923.41;;;-145.95;100.00
37648;BME280;23490;53.656;10.076;2022-09-09T05:08:39;55951.94;;;-145.95;100.00
37648;BME280;23490;53.656;10.076;2022-09-09T05:11:22;55898.94;;;-145.95;100.00
37648;BME280;23490;53.656;10.076;2022-09-09T05:13:49;55929.50;;;-145.95;100.00
37648;BME280;23490;53.656;10.076;2022-09-09T05:16:16;55882.63;;;-145.95;100.00
37648;BME280;23490;53.656;10.076;2022-09-09T05:18:42;55923.41;;;-145.95;100.00
37648;BME280;23490;53.656;10.076;2022-09-09T05:21:09;55923.41;;;-145.95;100.00
37648;BME280;23490;53.656;10.076;2022-09-09T05:23:35;55972.34;;;-145.95;100.00
37648;BME280;23490;53.656;10.076;2022-09-09T05:26:02;55915.25;;;-145.95;100.00
37648;BME280;23490;53.656;10.076;2022-09-09T05:28:28;55913.19;;;-145.95;100.00
37648;BME280;23490;53.656;10.076;2022-09-09T05:31:03;55923.41;;;-145.95;100.00
37648;BME280;23490;53.656;10.076;2022-09-09T05:33:33;55968.25;;;-145.95;100.00
37648;BME280;23490;53.656;10.076;2022-09-09T05:36:01;55935.63;;;-145.95;100.00
37648;BME280;23490;53.656;10.076;2022-09-09T05:38:28;55976.41;;;-145.95;100.00
37648;BME280;23490;53.656;10.076;2022-09-09T05:40:54;55917.28;;;-145.95;100.00
37648;BME280;23490;53.656;10.076;2022-09-09T05:43:20;55890.78;;;-145.95;100.00
37648;BME280;23490;53.656;10.076;2022-09-09T05:45:47;55903.00;;;-145.95;100.00
37648;BME280;23490;53.656;10.076;2022-09-09T05:48:16;55925.44;;;-145.95;100.00
37648;BME280;23490;53.656;10.076;2022-09-09T05:50:42;55960.09;;;-145.95;100.00
37648;BME280;23490;53.656;10.076;2022-09-09T05:53:08;55964.19;;;-145.95;100.00
37648;BME280;23490;53.656;10.076;2022-09-09T05:55:33;55921.34;;;-145.95;100.00
37648;BME280;23490;53.656;10.076;2022-09-09T05:57:59;55939.72;;;-145.95;100.00
37648;BME280;23490;53.656;10.076;2022-09-09T06:00:25;55974.38;;;-145.95;100.00
37648;BME280;23490;53.656;10.076;2022-09-09T06:02:52;55931.56;;;-145.95;100.00
37648;BME280;23490;53.656;10.076;2022-09-09T06:05:18;55919.31;;;-145.95;100.00
37648;BME280;23490;53.656;10.076;2022-09-09T06:07:44;55937.66;;;-145.95;100.00
37648;BME280;23490;53.656;10.076;2022-09-09T06:10:10;55964.19;;;-145.95;100.00
37648;BME280;23490;53.656;10.076;2022-09-09T06:12:39;55992.72;;;-145.95;100.00
37648;BME280;23490;53.656;10.076;2022-09-09T06:15:05;55951.94;;;-145.95;100.00
37648;BME280;23490;53.656;10.076;2022-09-09T06:17:30;55919.31;;;-145.95;100.00
37648;BME280;23490;53.656;10.076;2022-09-09T06:19:56;55915.25;;;-145.95;100.00
37648;BME280;23490;53.656;10.076;2022-09-09T06:22:22;55915.25;;;-145.95;100.00
37648;BME280;23490;53.656;10.076;2022-09-09T06:24:47;55923.41;;;-145.95;100.00
37648;BME280;23490;53.656;10.076;2022-09-09T06:27:13;55919.31;;;-145.95;100.00
37648;BME280;23490;53.656;10.076;2022-09-09T06:29:39;55968.25;;;-145.95;100.00
37648;BME280;23490;53.656;10.076;2022-09-09T06:32:04;55939.72;;;-145.95;100.00
37648;BME280;23490;53.656;10.076;2022-09-09T06:34:29;55960.09;;;-145.95;100.00
37648;BME280;23490;53.656;10.076;2022-09-09T06:36:55;55927.47;;;-145.95;100.00
37648;BME280;23490;53.656;10.076;2022-09-09T06:39:22;55935.63;;;-145.95;100.00
37648;BME280;23490;53.656;10.076;2022-09-09T06:41:48;55951.94;;;-145.95;100.00
37648;BME280;23490;53.656;10.076;2022-09-09T06:44:15;55964.19;;;-145.95;100.00
37648;BME280;23490;53.656;10.076;2022-09-09T06:46:40;55990.69;;;-145.95;100.00
37648;BME280;23490;53.656;10.076;2022-09-09T06:49:07;55943.78;;;-145.95;100.00
37648;BME280;23490;53.656;10.076;2022-09-09T06:51:35;55951.94;;;-145.95;100.00
37648;BME280;23490;53.656;10.076;2022-09-09T06:54:01;55980.50;;;-145.95;100.00
37648;BME280;23490;53.656;10.076;2022-09-09T06:56:32;55962.16;;;-145.95;100.00
37648;BME280;23490;53.656;10.076;2022-09-09T06:59:01;55966.22;;;-145.95;100.00
37648;BME280;23490;53.656;10.076;2022-09-09T07:01:29;55988.66;;;-145.95;100.00
37648;BME280;23490;53.656;10.076;2022-09-09T07:03:57;55964.19;;;-145.95;100.00
37648;BME280;23490;53.656;10.076;2022-09-09T07:06:44;55976.41;;;-145.95;100.00
37648;BME280;23490;53.656;10.076;2022-09-09T07:09:12;55978.47;;;-145.95;100.00
37648;BME280;23490;53.656;10.076;2022-09-09T07:11:40;55968.25;;;-145.95;100.00
37648;BME280;23490;53.656;10.076;2022-09-09T07:14:06;55943.78;;;-145.95;100.00
37648;BME280;23490;53.656;10.076;2022-09-09T07:16:33;55939.72;;;-145.95;100.00
37648;BME280;23490;53.656;10.076;2022-09-09T07:18:58;55972.34;;;-145.95;100.00
37648;BME280;23490;53.656;10.076;2022-09-09T07:21:25;56017.19;;;-145.95;100.00
37648;BME280;23490;53.656;10.076;2022-09-09T07:23:54;55951.94;;;-145.95;100.00
37648;BME280;23490;53.656;10.076;2022-09-09T07:26:22;55931.56;;;-145.95;100.00
37648;BME280;23490;53.656;10.076;2022-09-09T07:28:48;55992.72;;;-145.95;100.00
37648;BME280;23490;53.656;10.076;2022-09-09T07:31:20;55943.78;;;-145.95;100.00
37648;BME280;23490;53.656;10.076;2022-09-09T07:33:46;55984.56;;;-145.95;100.00
37648;BME280;23490;53.656;10.076;2022-09-09T07:39:03;55986.63;;;-145.95;100.00
37648;BME280;23490;53.656;10.076;2022-09-09T07:41:32;55956.03;;;-145.95;100.00
37648;BME280;23490;53.656;10.076;2022-09-09T07:44:03;55947.88;;;-145.95;100.00
37648;BME280;23490;53.656;10.076;2022-09-09T07:46:29;55964.19;;;-145.95;100.00
37648;BME280;23490;53.656;10.076;2022-09-09T07:48:56;56000.88;;;-145.95;100.00
37648;BME280;23490;53.656;10.076;2022-09-09T07:51:26;55974.38;;;-145.95;100.00
37648;BME280;23490;53.656;10.076;2022-09-09T07:53:55;55960.09;;;-145.95;100.00
37648;BME280;23490;53.656;10.076;2022-09-09T07:56:21;55972.34;;;-145.95;100.00
37648;BME280;23490;53.656;10.076;2022-09-09T07:58:50;55968.25;;;-145.95;100.00
37648;BME280;23490;53.656;10.076;2022-09-09T08:01:24;56000.88;;;-145.95;100.00
37648;BME280;23490;53.656;10.076;2022-09-09T08:03:56;55986.63;;;-145.95;100.00
37648;BME280;23490;53.656;10.076;2022-09-09T08:06:25;55984.56;;;-145.95;100.00
37648;BME280;23490;53.656;10.076;2022-09-09T08:08:52;55988.66;;;-145.95;100.00
37648;BME280;23490;53.656;10.076;2022-09-09T08:11:18;55990.69;;;-145.95;100.00
37648;BME280;23490;53.656;10.076;2022-09-09T08:13:43;55986.63;;;-145.95;100.00
37648;BME280;23490;53.656;10.076;2022-09-09T08:16:18;56000.88;;;-145.95;100.00
37648;BME280;23490;53.656;10.076;2022-09-09T08:18:47;56002.94;;;-145.95;100.00
37648;BME280;23490;53.656;10.076;2022-09-09T08:21:18;56033.53;;;-145.95;100.00
37648;BME280;23490;53.656;10.076;2022-09-09T08:23:45;55992.72;;;-145.95;97.59
37648;BME280;23490;53.656;10.076;2022-09-09T08:26:14;56000.88;;;-145.95;100.00
37648;BME280;23490;53.656;10.076;2022-09-09T08:28:41;56000.88;;;-145.95;100.00
37648;BME280;23490;53.656;10.076;2022-09-09T08:31:16;55984.56;;;-145.95;100.00
37648;BME280;23490;53.656;10.076;2022-09-09T08:33:42;56027.41;;;-145.95;100.00
37648;BME280;23490;53.656;10.076;2022-09-09T08:36:12;55988.66;;;-145.95;97.18
37648;BME280;23490;53.656;10.076;2022-09-09T08:38:39;55988.66;;;-145.95;97.18
37648;BME280;23490;53.656;10.076;2022-09-09T08:50:21;55992.72;;;-145.95;91.72
37648;BME280;23490;53.656;10.076;2022-09-09T08:52:57;56021.28;;;-145.95;92.80
37648;BME280;23490;53.656;10.076;2022-09-09T08:55:31;56013.13;;;-145.95;87.68
37648;BME280;23490;53.656;10.076;2022-09-09T08:58:06;55976.41;;;-145.95;87.93
37648;BME280;23490;53.656;10.076;2022-09-09T09:00:42;56009.03;;;-145.95;85.17
37648;BME280;23490;53.656;10.076;2022-09-09T09:03:23;56021.28;;;-145.95;84.84
37648;BME280;23490;53.656;10.076;2022-09-09T09:06:04;56009.03;;;-145.95;83.09
37648;BME280;23490;53.656;10.076;2022-09-09T09:08:47;55980.50;;;-145.95;86.87
37648;BME280;23490;53.656;10.076;2022-09-09T09:11:18;56000.88;;;-145.95;86.57
37648;BME280;23490;53.656;10.076;2022-09-09T09:13:48;56033.53;;;-145.95;84.01
37648;BME280;23490;53.656;10.076;2022-09-09T09:16:29;55996.81;;;-145.95;85.02
37648;BME280;23490;53.656;10.076;2022-09-09T09:18:58;56025.34;;;-145.95;84.15
37648;BME280;23490;53.656;10.076;2022-09-09T09:21:34;56000.88;;;-145.95;83.69
37648;BME280;23490;53.656;10.076;2022-09-09T09:24:06;55984.56;;;-145.95;82.38
37648;BME280;23490;53.656;10.076;2022-09-09T09:26:34;56049.84;;;-145.95;84.75
37648;BME280;23490;53.656;10.076;2022-09-09T09:29:08;56035.56;;;-145.95;80.83
37648;BME280;23490;53.656;10.076;2022-09-09T09:31:34;56004.97;;;-145.95;80.32
37648;BME280;23490;53.656;10.076;2022-09-09T09:34:00;56037.59;;;-145.95;80.75
37648;BME280;23490;53.656;10.076;2022-09-09T09:36:35;56025.34;;;-145.95;79.29
37648;BME280;23490;53.656;10.076;2022-09-09T09:39:03;56021.28;;;-145.95;77.13
37648;BME280;23490;53.656;10.076;2022-09-09T09:41:37;56025.34;;;-145.95;78.85
37648;BME280;23490;53.656;10.076;2022-09-09T09:44:04;56002.94;;;-145.95;75.83
37648;BME280;23490;53.656;10.076;2022-09-09T09:46:32;56021.28;;;-145.95;78.32
37648;BME280;23490;53.656;10.076;2022-09-09T09:49:02;56033.53;;;-145.95;79.98
37648;BME280;23490;53.656;10.076;2022-09-09T09:51:30;56009.03;;;-145.95;76.32
37648;BME280;23490;53.656;10.076;2022-09-09T09:56:38;56025.34;;;-145.95;76.49
37648;BME280;23490;53.656;10.076;2022-09-09T09:59:11;56009.03;;;-145.95;73.95
37648;BME280;23490;53.656;10.076;2022-09-09T10:01:44;56031.47;;;-145.95;75.93
37648;BME280;23490;53.656;10.076;2022-09-09T10:04:16;56062.06;;;-145.95;74.59
37648;BME280;23490;53.656;10.076;2022-09-09T10:06:43;55996.81;;;-145.95;77.23
37648;BME280;23490;53.656;10.076;2022-09-09T10:09:25;56009.03;;;-145.95;75.41
37648;BME280;23490;53.656;10.076;2022-09-09T10:22:49;56025.34;;;-145.95;65.34
37648;BME280;23490;53.656;10.076;2022-09-09T10:28:19;56009.03;;;-145.95;63.36
37648;BME280;23490;53.656;10.076;2022-09-09T10:31:02;56013.13;;;-145.95;61.47
37648;BME280;23490;53.656;10.076;2022-09-09T10:33:39;56045.75;;;-145.95;59.47
37648;BME280;23490;53.656;10.076;2022-09-09T10:36:21;56058.00;;;-145.95;57.84
37648;BME280;23490;53.656;10.076;2022-09-09T10:38:58;55992.72;;;-145.95;61.28
37648;BME280;23490;53.656;10.076;2022-09-09T10:41:44;56021.28;;;-145.95;62.54
37648;BME280;23490;53.656;10.076;2022-09-09T10:44:38;56029.44;;;-145.95;63.51
37648;BME280;23490;53.656;10.076;2022-09-09T10:47:35;56029.44;;;-145.95;62.78
37648;BME280;23490;53.656;10.076;2022-09-09T10:55:56;56045.75;;;-145.95;56.37
37648;BME280;23490;53.656;10.076;2022-09-09T10:58:33;56033.53;;;-145.95;57.49
37648;BME280;23490;53.656;10.076;2022-09-09T11:01:09;55996.81;;;-145.95;55.63
37648;BME280;23490;53.656;10.076;2022-09-09T11:03:39;56019.25;;;-145.95;55.28
37648;BME280;23490;53.656;10.076;2022-09-09T11:06:09;56025.34;;;-145.95;55.81
37648;BME280;23490;53.656;10.076;2022-09-09T11:08:39;56062.06;;;-145.95;57.05
37648;BME280;23490;53.656;10.076;2022-09-09T11:18:55;56051.88;;;-145.95;57.92
37648;BME280;23490;53.656;10.076;2022-09-09T11:21:31;56074.31;;;-145.95;58.11
37648;BME280;23490;53.656;10.076;2022-09-09T11:24:02;55992.72;;;-145.95;60.05
37648;BME280;23490;53.656;10.076;2022-09-09T11:26:39;56041.69;;;-145.95;61.29
37648;BME280;23490;53.656;10.076;2022-09-09T11:29:30;56033.53;;;-145.95;60.57
37648;BME280;23490;53.656;10.076;2022-09-09T11:40:24;56037.59;;;-145.95;56.74
37648;BME280;23490;53.656;10.076;2022-09-09T11:43:12;56049.84;;;-145.95;56.70
37648;BME280;23490;53.656;10.076;2022-09-09T11:45:40;56025.34;;;-145.95;56.56
37648;BME280;23490;53.656;10.076;2022-09-09T11:48:26;56029.44;;;-145.95;57.04
37648;BME280;23490;53.656;10.076;2022-09-09T11:50:59;56045.75;;;-145.95;56.58
37648;BME280;23490;53.656;10.076;2022-09-09T11:53:25;56045.75;;;-145.95;57.24
37648;BME280;23490;53.656;10.076;2022-09-09T11:56:12;56011.09;;;-145.95;59.22
37648;BME280;23490;53.656;10.076;2022-09-09T11:58:44;56049.84;;;-145.95;57.90
37648;BME280;23490;53.656;10.076;2022-09-09T12:01:29;55996.81;;;-145.95;59.65
37648;BME280;23490;53.656;10.076;2022-09-09T12:06:51;56013.13;;;-145.95;60.78
37648;BME280;23490;53.656;10.076;2022-09-09T12:09:23;56031.47;;;-145.95;58.94
37648;BME280;23490;53.656;10.076;2022-09-09T12:11:50;56055.94;;;-145.95;61.08
37648;BME280;23490;53.656;10.076;2022-09-09T12:17:22;55986.63;;;-145.95;61.04
37648;BME280;23490;53.656;10.076;2022-09-09T12:19:48;56033.53;;;-145.95;61.70
37648;BME280;23490;53.656;10.076;2022-09-09T12:22:44;56035.56;;;-145.95;63.36
37648;BME280;23490;53.656;10.076;2022-09-09T12:25:20;56033.53;;;-145.95;63.29
37648;BME280;23490;53.656;10.076;2022-09-09T12:30:24;55980.50;;;-145.95;65.03
37648;BME280;23490;53.656;10.076;2022-09-09T12:33:06;56041.69;;;-145.95;65.82
37648;BME280;23490;53.656;10.076;2022-09-09T12:35:34;56033.53;;;-145.95;64.58
37648;BME280;23490;53.656;10.076;2022-09-09T12:38:04;56021.28;;;-145.95;64.92
37648;BME280;23490;53.656;10.076;2022-09-09T12:40:35;56021.28;;;-145.95;65.22
37648;BME280;23490;53.656;10.076;2022-09-09T12:43:02;56031.47;;;-145.95;64.64
37648;BME280;23490;53.656;10.076;2022-09-09T12:45:32;56013.13;;;-145.95;63.98
37648;BME280;23490;53.656;10.076;2022-09-09T12:48:05;56035.56;;;-145.95;70.80
37648;BME280;23490;53.656;10.076;2022-09-09T12:50:33;56033.53;;;-145.95;69.57
37648;BME280;23490;53.656;10.076;2022-09-09T12:53:07;56009.03;;;-145.95;68.73
37648;BME280;23490;53.656;10.076;2022-09-09T12:55:38;56015.16;;;-145.95;70.59
37648;BME280;23490;53.656;10.076;2022-09-09T12:58:05;56037.59;;;-145.95;71.08
37648;BME280;23490;53.656;10.076;2022-09-09T13:00:32;56025.34;;;-145.95;73.78
37648;BME280;23490;53.656;10.076;2022-09-09T13:03:01;56000.88;;;-145.95;75.32
37648;BME280;23490;53.656;10.076;2022-09-09T13:05:35;56074.31;;;-145.95;71.29
37648;BME280;23490;53.656;10.076;2022-09-09T13:08:02;56082.47;;;-145.95;71.89
37648;BME280;23490;53.656;10.076;2022-09-09T13:10:29;56045.75;;;-145.95;72.37
37648;BME280;23490;53.656;10.076;2022-09-09T13:12:55;56004.97;;;-145.95;75.90
37648;BME280;23490;53.656;10.076;2022-09-09T13:15:24;56041.69;;;-145.95;75.87
37648;BME280;23490;53.656;10.076;2022-09-09T13:17:57;56074.31;;;-145.95;73.78
37648;BME280;23490;53.656;10.076;2022-09-09T13:20:27;56037.59;;;-145.95;74.94
37648;BME280;23490;53.656;10.076;2022-09-09T13:22:54;55998.84;;;-145.95;75.74
37648;BME280;23490;53.656;10.076;2022-09-09T13:25:25;56029.44;;;-145.95;75.06
37648;BME280;23490;53.656;10.076;2022-09-09T13:28:01;56021.28;;;-145.95;74.59
37648;BME280;23490;53.656;10.076;2022-09-09T13:30:33;56017.19;;;-145.95;74.35
37648;BME280;23490;53.656;10.076;2022-09-09T13:33:36;56051.88;;;-145.95;72.05
37648;BME280;23490;53.656;10.076;2022-09-09T13:36:02;55984.56;;;-145.95;73.77
37648;BME280;23490;53.656;10.076;2022-09-09T13:38:31;56015.16;;;-145.95;72.57
37648;BME280;23490;53.656;10.076;2022-09-09T13:41:01;56025.34;;;-145.95;72.77
37648;BME280;23490;53.656;10.076;2022-09-09T13:44:02;55992.72;;;-145.95;72.66
37648;BME280;23490;53.656;10.076;2022-09-09T13:51:44;56007.00;;;-145.95;74.05
37648;BME280;23490;53.656;10.076;2022-09-09T13:54:12;56029.44;;;-145.95;73.41
37648;BME280;23490;53.656;10.076;2022-09-09T13:56:39;55996.81;;;-145.95;75.11
37648;BME280;23490;53.656;10.076;2022-09-09T13:59:08;56041.69;;;-145.95;77.52
37648;BME280;23490;53.656;10.076;2022-09-09T14:01:35;56025.34;;;-145.95;81.04
37648;BME280;23490;53.656;10.076;2022-09-09T14:04:01;56021.28;;;-145.95;85.43
37648;BME280;23490;53.656;10.076;2022-09-09T14:06:26;56017.19;;;-145.95;88.65
37648;BME280;23490;53.656;10.076;2022-09-09T14:08:52;56031.47;;;-145.95;92.73
37648;BME280;23490;53.656;10.076;2022-09-09T14:11:19;56009.03;;;-145.95;94.19
37648;BME280;23490;53.656;10.076;2022-09-09T14:13:46;56074.31;;;-145.95;92.70